sensor_id;sensor_type;location;lat;lon;timestamp;pressure;altitude;pressure_sealevel;temperature;humidity
21185;BME280;18176;49.502;11.754;2022-08-14T00:00:50;96776.72;;;18.67;82.85
21185;BME280;18176;49.502;11.754;2022-08-14T00:04:47;96772.19;;;18.63;84.10
21185;BME280;18176;49.502;11.754;2022-08-14T00:08:44;96747.34;;;18.52;83.26
21185;BME280;18176;49.502;11.754;2022-08-14T00:12:53;96766.56;;;18.64;82.83
21185;BME280;18176;49.502;11.754;2022-08-14T00:16:53;96770.09;;;18.60;83.64
21185;BME280;18176;49.502;11.754;2022-08-14T00:20:53;96744.22;;;18.40;84.57
21185;BME280;18176;49.502;11.754;2022-08-14T00:24:50;96750.63;;;18.44;83.46
21185;BME280;18176;49.502;11.754;2022-08-14T00:28:48;96764.09;;;18.39;83.50
21185;BME280;18176;49.502;11.754;2022-08-14T00:32:47;96731.31;;;18.18;83.80
21185;BME280;18176;49.502;11.754;2022-08-14T00:36:52;96751.84;;;18.28;83.83
21185;BME280;18176;49.502;11.754;2022-08-14T00:40:49;96718.78;;;18.09;84.01
21185;BME280;18176;49.502;11.754;2022-08-14T00:44:50;96736.09;;;18.21;84.81
21185;BME280;18176;49.502;11.754;2022-08-14T00:48:51;96727.34;;;18.11;84.45
21185;BME280;18176;49.502;11.754;2022-08-14T00:52:51;96744.97;;;18.17;85.03
21185;BME280;18176;49.502;11.754;2022-08-14T00:56:52;96737.03;;;18.07;85.90
21185;BME280;18176;49.502;11.754;2022-08-14T01:00:52;96728.50;;;18.05;86.04
21185;BME280;18176;49.502;11.754;2022-08-14T01:04:57;96718.59;;;18.00;85.55
21185;BME280;18176;49.502;11.754;2022-08-14T01:08:54;96712.53;;;17.90;85.38
21185;BME280;18176;49.502;11.754;2022-08-14T01:12:56;96710.13;;;17.88;85.55
21185;BME280;18176;49.502;11.754;2022-08-14T01:16:53;96700.09;;;17.70;86.08
21185;BME280;18176;49.502;11.754;2022-08-14T01:20:52;96727.66;;;17.76;86.77
21185;BME280;18176;49.502;11.754;2022-08-14T01:24:59;96706.31;;;17.66;86.90
21185;BME280;18176;49.502;11.754;2022-08-14T01:28:58;96733.81;;;17.76;87.43
21185;BME280;18176;49.502;11.754;2022-08-14T01:32:55;96721.59;;;17.60;87.26
21185;BME280;18176;49.502;11.754;2022-08-14T01:36:53;96724.56;;;17.59;87.87
21185;BME280;18176;49.502;11.754;2022-08-14T01:40:52;96729.41;;;17.57;87.95
21185;BME280;18176;49.502;11.754;2022-08-14T01:44:50;96700.53;;;17.43;87.93
21185;BME280;18176;49.502;11.754;2022-08-14T01:48:55;96708.00;;;17.46;87.85
21185;BME280;18176;49.502;11.754;2022-08-14T01:52:55;96687.72;;;17.35;87.73
21185;BME280;18176;49.502;11.754;2022-08-14T01:56:56;96712.00;;;17.49;87.77
21185;BME280;18176;49.502;11.754;2022-08-14T02:00:55;96707.47;;;17.49;88.14
21185;BME280;18176;49.502;11.754;2022-08-14T02:04:52;96674.34;;;17.35;88.94
21185;BME280;18176;49.502;11.754;2022-08-14T02:08:53;96699.97;;;17.46;88.19
21185;BME280;18176;49.502;11.754;2022-08-14T02:12:52;96689.41;;;17.26;89.07
21185;BME280;18176;49.502;11.754;2022-08-14T02:16:55;96693.66;;;17.27;89.21
21185;BME280;18176;49.502;11.754;2022-08-14T02:20:53;96676.00;;;17.26;88.91
21185;BME280;18176;49.502;11.754;2022-08-14T02:24:51;96677.72;;;17.07;89.82
21185;BME280;18176;49.502;11.754;2022-08-14T02:28:53;96654.81;;;16.86;90.26
21185;BME280;18176;49.502;11.754;2022-08-14T02:32:55;96679.06;;;17.10;90.31
21185;BME280;18176;49.502;11.754;2022-08-14T02:37:00;96678.25;;;17.09;91.11
21185;BME280;18176;49.502;11.754;2022-08-14T02:41:08;96678.34;;;16.94;93.10
21185;BME280;18176;49.502;11.754;2022-08-14T02:45:07;96677.72;;;17.07;91.65
21185;BME280;18176;49.502;11.754;2022-08-14T02:49:05;96679.81;;;17.15;94.84
21185;BME280;18176;49.502;11.754;2022-08-14T02:53:05;96680.84;;;17.24;93.89
21185;BME280;18176;49.502;11.754;2022-08-14T02:57:04;96667.25;;;17.11;92.58
21185;BME280;18176;49.502;11.754;2022-08-14T03:01:23;96657.66;;;17.05;91.20
21185;BME280;18176;49.502;11.754;2022-08-14T03:05:27;96673.50;;;17.01;90.46
21185;BME280;18176;49.502;11.754;2022-08-14T03:09:32;96676.94;;;17.02;90.20
21185;BME280;18176;49.502;11.754;2022-08-14T03:13:51;96662.44;;;16.64;91.73
21185;BME280;18176;49.502;11.754;2022-08-14T03:17:48;96662.34;;;16.79;91.74
21185;BME280;18176;49.502;11.754;2022-08-14T03:21:53;96652.16;;;16.81;90.78
21185;BME280;18176;49.502;11.754;2022-08-14T03:25:51;96658.78;;;16.99;90.58
21185;BME280;18176;49.502;11.754;2022-08-14T03:29:52;96656.84;;;17.04;90.23
21185;BME280;18176;49.502;11.754;2022-08-14T03:33:50;96657.13;;;17.08;90.11
21185;BME280;18176;49.502;11.754;2022-08-14T03:37:50;96633.69;;;16.90;90.25
21185;BME280;18176;49.502;11.754;2022-08-14T03:42:10;96643.06;;;16.87;91.07
21185;BME280;18176;49.502;11.754;2022-08-14T03:46:16;96623.88;;;16.70;92.43
21185;BME280;18176;49.502;11.754;2022-08-14T03:50:34;96624.91;;;16.74;92.39
21185;BME280;18176;49.502;11.754;2022-08-14T03:54:32;96616.16;;;16.63;92.45
21185;BME280;18176;49.502;11.754;2022-08-14T03:58:32;96626.56;;;16.65;93.33
21185;BME280;18176;49.502;11.754;2022-08-14T04:02:32;96623.88;;;16.70;93.41
21185;BME280;18176;49.502;11.754;2022-08-14T04:06:43;96617.19;;;16.72;92.68
21185;BME280;18176;49.502;11.754;2022-08-14T04:10:44;96611.28;;;16.75;93.60
21185;BME280;18176;49.502;11.754;2022-08-14T04:14:43;96589.13;;;16.65;93.49
21185;BME280;18176;49.502;11.754;2022-08-14T04:18:48;96601.34;;;16.81;92.73
21185;BME280;18176;49.502;11.754;2022-08-14T04:22:47;96614.13;;;16.94;92.29
21185;BME280;18176;49.502;11.754;2022-08-14T04:26:50;96614.81;;;16.61;94.04
21185;BME280;18176;49.502;11.754;2022-08-14T04:30:47;96584.63;;;16.55;93.66
21185;BME280;18176;49.502;11.754;2022-08-14T04:34:44;96580.69;;;16.33;94.82
21185;BME280;18176;49.502;11.754;2022-08-14T04:38:47;96602.25;;;16.66;94.46
21185;BME280;18176;49.502;11.754;2022-08-14T04:43:03;96593.09;;;16.72;94.06
21185;BME280;18176;49.502;11.754;2022-08-14T04:47:19;96594.88;;;16.92;93.07
21185;BME280;18176;49.502;11.754;2022-08-14T04:51:42;96606.53;;;17.06;92.40
21185;BME280;18176;49.502;11.754;2022-08-14T04:55:52;96601.66;;;17.13;91.93
21185;BME280;18176;49.502;11.754;2022-08-14T04:59:50;96598.06;;;16.94;92.78
21185;BME280;18176;49.502;11.754;2022-08-14T05:03:48;96589.06;;;17.14;92.31
21185;BME280;18176;49.502;11.754;2022-08-14T05:07:46;96581.84;;;17.14;92.72
21185;BME280;18176;49.502;11.754;2022-08-14T05:11:57;96579.25;;;16.99;93.65
21185;BME280;18176;49.502;11.754;2022-08-14T05:16:14;96575.41;;;17.15;92.91
21185;BME280;18176;49.502;11.754;2022-08-14T05:20:12;96576.97;;;17.21;94.03
21185;BME280;18176;49.502;11.754;2022-08-14T05:24:29;96565.56;;;17.39;94.87
21185;BME280;18176;49.502;11.754;2022-08-14T05:28:34;96571.31;;;17.85;100.00
21185;BME280;18176;49.502;11.754;2022-08-14T05:32:32;96549.97;;;17.99;99.32
21185;BME280;18176;49.502;11.754;2022-08-14T05:36:30;96553.19;;;18.43;98.80
21185;BME280;18176;49.502;11.754;2022-08-14T05:40:31;96553.44;;;18.65;98.93
21185;BME280;18176;49.502;11.754;2022-08-14T05:44:29;96557.38;;;18.91;97.74
21185;BME280;18176;49.502;11.754;2022-08-14T05:48:28;96551.09;;;19.15;96.71
21185;BME280;18176;49.502;11.754;2022-08-14T05:52:29;96538.44;;;19.34;95.22
21185;BME280;18176;49.502;11.754;2022-08-14T05:56:35;96534.94;;;19.01;96.69
21185;BME280;18176;49.502;11.754;2022-08-14T06:00:37;96539.19;;;19.53;94.70
21185;BME280;18176;49.502;11.754;2022-08-14T06:04:35;96546.28;;;19.76;92.96
21185;BME280;18176;49.502;11.754;2022-08-14T06:08:32;96547.28;;;19.94;92.44
21185;BME280;18176;49.502;11.754;2022-08-14T06:12:37;96538.38;;;19.98;91.15
21185;BME280;18176;49.502;11.754;2022-08-14T06:16:52;96545.53;;;20.16;89.81
21185;BME280;18176;49.502;11.754;2022-08-14T06:20:50;96486.97;;;20.00;89.12
21185;BME280;18176;49.502;11.754;2022-08-14T06:24:47;96549.47;;;20.60;88.07
21185;BME280;18176;49.502;11.754;2022-08-14T06:28:44;96529.66;;;20.42;87.74
21185;BME280;18176;49.502;11.754;2022-08-14T06:32:41;96534.97;;;20.83;86.05
21185;BME280;18176;49.502;11.754;2022-08-14T06:36:40;96533.50;;;20.99;85.15
21185;BME280;18176;49.502;11.754;2022-08-14T06:40:37;96531.00;;;21.02;84.33
21185;BME280;18176;49.502;11.754;2022-08-14T06:44:38;96529.22;;;20.98;84.27
21185;BME280;18176;49.502;11.754;2022-08-14T06:48:36;96523.50;;;21.13;84.10
21185;BME280;18176;49.502;11.754;2022-08-14T06:52:38;96529.97;;;21.34;83.09
21185;BME280;18176;49.502;11.754;2022-08-14T06:56:45;96538.59;;;21.45;82.17
21185;BME280;18176;49.502;11.754;2022-08-14T07:00:50;96550.75;;;21.34;82.87
21185;BME280;18176;49.502;11.754;2022-08-14T07:05:08;96568.72;;;21.69;81.10
21185;BME280;18176;49.502;11.754;2022-08-14T07:09:23;96542.94;;;21.54;81.19
21185;BME280;18176;49.502;11.754;2022-08-14T07:13:24;96558.47;;;21.80;80.63
21185;BME280;18176;49.502;11.754;2022-08-14T07:17:24;96547.94;;;21.92;79.47
21185;BME280;18176;49.502;11.754;2022-08-14T07:21:23;96558.22;;;21.90;78.99
21185;BME280;18176;49.502;11.754;2022-08-14T07:25:20;96540.66;;;22.01;78.88
21185;BME280;18176;49.502;11.754;2022-08-14T07:29:28;96539.28;;;22.20;77.13
21185;BME280;18176;49.502;11.754;2022-08-14T07:33:30;96548.72;;;22.40;76.64
21185;BME280;18176;49.502;11.754;2022-08-14T07:37:28;96536.34;;;22.48;75.98
21185;BME280;18176;49.502;11.754;2022-08-14T07:41:26;96519.84;;;22.49;75.24
21185;BME280;18176;49.502;11.754;2022-08-14T07:45:30;96525.31;;;22.83;74.55
21185;BME280;18176;49.502;11.754;2022-08-14T07:49:27;96534.19;;;23.27;71.75
21185;BME280;18176;49.502;11.754;2022-08-14T07:53:25;96510.31;;;23.29;71.28
21185;BME280;18176;49.502;11.754;2022-08-14T07:57:22;96527.09;;;23.77;69.93
21185;BME280;18176;49.502;11.754;2022-08-14T08:01:21;96525.00;;;24.20;67.58
21185;BME280;18176;49.502;11.754;2022-08-14T08:05:20;96523.09;;;24.50;65.33
21185;BME280;18176;49.502;11.754;2022-08-14T08:09:23;96520.31;;;25.41;61.63
21185;BME280;18176;49.502;11.754;2022-08-14T08:13:32;96513.38;;;26.33;57.91
21185;BME280;18176;49.502;11.754;2022-08-14T08:17:36;96507.88;;;26.82;55.97
21185;BME280;18176;49.502;11.754;2022-08-14T08:21:38;96493.06;;;27.35;55.08
21185;BME280;18176;49.502;11.754;2022-08-14T08:25:41;96518.59;;;28.51;50.51
21185;BME280;18176;49.502;11.754;2022-08-14T08:29:39;96514.09;;;29.70;49.31
21185;BME280;18176;49.502;11.754;2022-08-14T08:33:51;96500.63;;;30.26;45.56
21185;BME280;18176;49.502;11.754;2022-08-14T08:37:54;96483.34;;;29.96;46.52
21185;BME280;18176;49.502;11.754;2022-08-14T08:41:58;96501.41;;;31.05;43.63
21185;BME280;18176;49.502;11.754;2022-08-14T08:46:08;96486.16;;;30.26;43.83
21185;BME280;18176;49.502;11.754;2022-08-14T08:50:30;96475.66;;;29.60;45.66
21185;BME280;18176;49.502;11.754;2022-08-14T08:54:26;96465.16;;;29.81;45.63
21185;BME280;18176;49.502;11.754;2022-08-14T08:58:27;96465.78;;;29.74;45.17
21185;BME280;18176;49.502;11.754;2022-08-14T09:02:24;96463.06;;;29.74;44.71
21185;BME280;18176;49.502;11.754;2022-08-14T09:06:23;96467.69;;;30.42;42.20
21185;BME280;18176;49.502;11.754;2022-08-14T09:10:41;96425.72;;;30.31;42.03
21185;BME280;18176;49.502;11.754;2022-08-14T09:14:38;96459.19;;;31.80;38.90
21185;BME280;18176;49.502;11.754;2022-08-14T09:18:40;96435.22;;;31.30;39.44
21185;BME280;18176;49.502;11.754;2022-08-14T09:22:39;96427.75;;;30.34;40.66
21185;BME280;18176;49.502;11.754;2022-08-14T09:26:44;96434.84;;;30.38;41.47
21185;BME280;18176;49.502;11.754;2022-08-14T09:30:52;96448.41;;;29.63;42.23
21185;BME280;18176;49.502;11.754;2022-08-14T09:35:21;96433.16;;;28.79;43.90
21185;BME280;18176;49.502;11.754;2022-08-14T09:40:07;96444.56;;;29.23;43.84
21185;BME280;18176;49.502;11.754;2022-08-14T09:48:28;96394.69;;;31.05;37.19
21185;BME280;18176;49.502;11.754;2022-08-14T09:52:27;96395.56;;;30.50;39.27
21185;BME280;18176;49.502;11.754;2022-08-14T09:56:48;96409.81;;;31.73;37.70
21185;BME280;18176;49.502;11.754;2022-08-14T10:00:55;96405.50;;;31.32;38.17
21185;BME280;18176;49.502;11.754;2022-08-14T10:05:08;96392.50;;;31.62;37.51
21185;BME280;18176;49.502;11.754;2022-08-14T10:09:08;96393.41;;;30.96;37.52
21185;BME280;18176;49.502;11.754;2022-08-14T10:13:25;96384.00;;;30.97;38.19
21185;BME280;18176;49.502;11.754;2022-08-14T10:17:32;96412.88;;;30.61;38.45
21185;BME280;18176;49.502;11.754;2022-08-14T10:21:37;96404.59;;;31.20;38.06
21185;BME280;18176;49.502;11.754;2022-08-14T10:26:06;96397.66;;;31.30;37.22
21185;BME280;18176;49.502;11.754;2022-08-14T10:30:17;96388.19;;;32.05;36.53
21185;BME280;18176;49.502;11.754;2022-08-14T10:34:21;96390.72;;;32.34;35.59
21185;BME280;18176;49.502;11.754;2022-08-14T10:38:35;96387.03;;;32.78;35.43
21185;BME280;18176;49.502;11.754;2022-08-14T10:42:40;96375.44;;;33.34;33.96
21185;BME280;18176;49.502;11.754;2022-08-14T10:46:53;96359.75;;;33.34;33.65
21185;BME280;18176;49.502;11.754;2022-08-14T10:51:25;96367.81;;;32.81;34.96
21185;BME280;18176;49.502;11.754;2022-08-14T10:55:35;96363.50;;;32.73;35.18
21185;BME280;18176;49.502;11.754;2022-08-14T10:59:51;96348.06;;;31.82;36.13
21185;BME280;18176;49.502;11.754;2022-08-14T11:03:50;96345.16;;;30.51;37.98
21185;BME280;18176;49.502;11.754;2022-08-14T11:11:55;96340.81;;;29.91;39.60
21185;BME280;18176;49.502;11.754;2022-08-14T11:16:13;96334.78;;;31.88;36.58
21185;BME280;18176;49.502;11.754;2022-08-14T11:20:20;96348.00;;;33.83;33.38
21185;BME280;18176;49.502;11.754;2022-08-14T11:24:20;96330.19;;;35.31;30.52
21185;BME280;18176;49.502;11.754;2022-08-14T11:28:41;96336.94;;;34.29;32.07
21185;BME280;18176;49.502;11.754;2022-08-14T11:32:47;96335.41;;;34.21;32.25
21185;BME280;18176;49.502;11.754;2022-08-14T11:36:44;96311.09;;;35.61;29.97
21185;BME280;18176;49.502;11.754;2022-08-14T11:41:02;96316.78;;;35.33;30.49
21185;BME280;18176;49.502;11.754;2022-08-14T11:45:04;96325.59;;;35.10;30.19
21185;BME280;18176;49.502;11.754;2022-08-14T11:49:13;96315.44;;;34.93;29.95
21185;BME280;18176;49.502;11.754;2022-08-14T11:53:22;96309.13;;;36.02;29.18
21185;BME280;18176;49.502;11.754;2022-08-14T11:57:22;96320.53;;;33.79;31.85
21185;BME280;18176;49.502;11.754;2022-08-14T12:01:28;96318.41;;;32.74;33.92
21185;BME280;18176;49.502;11.754;2022-08-14T12:05:36;96306.16;;;34.69;31.22
21185;BME280;18176;49.502;11.754;2022-08-14T12:09:37;96298.97;;;34.89;31.70
21185;BME280;18176;49.502;11.754;2022-08-14T12:13:41;96274.59;;;35.87;29.42
21185;BME280;18176;49.502;11.754;2022-08-14T12:17:47;96291.91;;;36.62;28.62
21185;BME280;18176;49.502;11.754;2022-08-14T12:21:50;96298.97;;;36.93;28.23
21185;BME280;18176;49.502;11.754;2022-08-14T12:26:01;96293.38;;;38.20;26.56
21185;BME280;18176;49.502;11.754;2022-08-14T12:34:38;96284.69;;;35.60;29.47
21185;BME280;18176;49.502;11.754;2022-08-14T12:38:42;96276.56;;;35.46;30.18
21185;BME280;18176;49.502;11.754;2022-08-14T12:42:41;96280.00;;;36.35;28.72
21185;BME280;18176;49.502;11.754;2022-08-14T12:46:49;96259.03;;;34.60;30.72
21185;BME280;18176;49.502;11.754;2022-08-14T12:50:48;96265.34;;;34.46;31.17
21185;BME280;18176;49.502;11.754;2022-08-14T12:55:00;96267.13;;;33.84;31.69
21185;BME280;18176;49.502;11.754;2022-08-14T12:59:02;96239.25;;;33.50;32.05
21185;BME280;18176;49.502;11.754;2022-08-14T13:03:00;96241.25;;;33.25;32.65
21185;BME280;18176;49.502;11.754;2022-08-14T13:07:03;96246.75;;;33.11;32.23
21185;BME280;18176;49.502;11.754;2022-08-14T13:11:04;96231.03;;;33.43;32.02
21185;BME280;18176;49.502;11.754;2022-08-14T13:15:10;96229.88;;;33.02;32.53
21185;BME280;18176;49.502;11.754;2022-08-14T13:19:13;96219.53;;;32.42;33.45
21185;BME280;18176;49.502;11.754;2022-08-14T13:23:13;96212.44;;;34.87;30.63
21185;BME280;18176;49.502;11.754;2022-08-14T13:27:13;96200.03;;;34.61;30.87
21185;BME280;18176;49.502;11.754;2022-08-14T13:31:15;96197.94;;;34.14;30.91
21185;BME280;18176;49.502;11.754;2022-08-14T13:35:16;96171.41;;;32.91;32.17
21185;BME280;18176;49.502;11.754;2022-08-14T13:39:16;96180.81;;;32.79;32.81
21185;BME280;18176;49.502;11.754;2022-08-14T13:43:15;96182.81;;;33.28;32.06
21185;BME280;18176;49.502;11.754;2022-08-14T13:47:13;96172.97;;;33.41;32.18
21185;BME280;18176;49.502;11.754;2022-08-14T13:51:15;96126.34;;;32.88;32.57
21185;BME280;18176;49.502;11.754;2022-08-14T13:55:17;96161.25;;;32.88;32.59
21185;BME280;18176;49.502;11.754;2022-08-14T13:59:15;96133.84;;;31.56;33.86
21185;BME280;18176;49.502;11.754;2022-08-14T14:03:19;96140.34;;;31.34;34.57
21185;BME280;18176;49.502;11.754;2022-08-14T14:07:20;96126.47;;;30.54;35.55
21185;BME280;18176;49.502;11.754;2022-08-14T14:11:19;96139.00;;;31.06;35.67
21185;BME280;18176;49.502;11.754;2022-08-14T14:15:19;96127.13;;;31.43;35.08
21185;BME280;18176;49.502;11.754;2022-08-14T14:19:31;96118.91;;;32.57;33.53
21185;BME280;18176;49.502;11.754;2022-08-14T14:23:34;96113.34;;;33.52;32.25
21185;BME280;18176;49.502;11.754;2022-08-14T14:27:36;96123.31;;;34.08;30.98
21185;BME280;18176;49.502;11.754;2022-08-14T14:31:37;96091.63;;;35.37;29.64
21185;BME280;18176;49.502;11.754;2022-08-14T14:35:36;96114.09;;;35.69;29.10
21185;BME280;18176;49.502;11.754;2022-08-14T14:39:36;96124.00;;;35.96;28.64
21185;BME280;18176;49.502;11.754;2022-08-14T14:43:55;96117.16;;;35.03;29.13
21185;BME280;18176;49.502;11.754;2022-08-14T14:47:54;96111.00;;;34.85;29.69
21185;BME280;18176;49.502;11.754;2022-08-14T14:51:55;96112.16;;;36.56;27.82
21185;BME280;18176;49.502;11.754;2022-08-14T14:55:54;96097.56;;;37.88;26.54
21185;BME280;18176;49.502;11.754;2022-08-14T15:00:18;96085.72;;;37.68;26.13
21185;BME280;18176;49.502;11.754;2022-08-14T15:04:15;96092.47;;;38.22;25.50
21185;BME280;18176;49.502;11.754;2022-08-14T15:08:16;96072.03;;;38.36;24.95
21185;BME280;18176;49.502;11.754;2022-08-14T15:12:33;96068.97;;;37.94;25.12
21185;BME280;18176;49.502;11.754;2022-08-14T15:16:50;96060.28;;;36.94;26.30
21185;BME280;18176;49.502;11.754;2022-08-14T15:20:48;96058.41;;;36.65;27.04
21185;BME280;18176;49.502;11.754;2022-08-14T15:24:46;96068.13;;;36.96;26.92
21185;BME280;18176;49.502;11.754;2022-08-14T15:28:44;96069.22;;;37.64;26.18
21185;BME280;18176;49.502;11.754;2022-08-14T15:32:42;96058.88;;;36.83;26.45
21185;BME280;18176;49.502;11.754;2022-08-14T15:36:43;96067.00;;;35.22;28.53
21185;BME280;18176;49.502;11.754;2022-08-14T15:40:41;96063.34;;;33.78;30.60
21185;BME280;18176;49.502;11.754;2022-08-14T15:44:39;96047.44;;;33.38;31.80
21185;BME280;18176;49.502;11.754;2022-08-14T15:48:53;96076.03;;;33.58;31.64
21185;BME280;18176;49.502;11.754;2022-08-14T15:52:51;96062.00;;;34.66;29.89
21185;BME280;18176;49.502;11.754;2022-08-14T15:57:03;96068.06;;;33.81;31.01
21185;BME280;18176;49.502;11.754;2022-08-14T16:01:04;96070.91;;;33.60;31.40
21185;BME280;18176;49.502;11.754;2022-08-14T16:05:36;96053.59;;;33.70;31.19
21185;BME280;18176;49.502;11.754;2022-08-14T16:09:34;96068.22;;;34.26;30.75
21185;BME280;18176;49.502;11.754;2022-08-14T16:13:32;96045.91;;;33.23;31.78
21185;BME280;18176;49.502;11.754;2022-08-14T16:17:38;96053.81;;;32.96;31.97
21185;BME280;18176;49.502;11.754;2022-08-14T16:21:41;96064.69;;;31.87;33.81
21185;BME280;18176;49.502;11.754;2022-08-14T16:25:58;96054.63;;;31.19;34.79
21185;BME280;18176;49.502;11.754;2022-08-14T16:30:00;96054.91;;;30.96;35.41
21185;BME280;18176;49.502;11.754;2022-08-14T16:34:03;96045.00;;;30.81;35.65
21185;BME280;18176;49.502;11.754;2022-08-14T16:38:21;96064.09;;;30.74;36.16
21185;BME280;18176;49.502;11.754;2022-08-14T16:42:41;96043.50;;;30.36;36.26
21185;BME280;18176;49.502;11.754;2022-08-14T16:47:01;96020.97;;;30.50;36.35
21185;BME280;18176;49.502;11.754;2022-08-14T16:51:01;96022.22;;;31.32;35.47
21185;BME280;18176;49.502;11.754;2022-08-14T16:55:06;96046.59;;;31.58;35.48
21185;BME280;18176;49.502;11.754;2022-08-14T16:59:19;96023.97;;;31.75;35.09
21185;BME280;18176;49.502;11.754;2022-08-14T17:04:10;96018.56;;;32.00;34.29
21185;BME280;18176;49.502;11.754;2022-08-14T17:08:20;96016.19;;;31.98;34.11
21185;BME280;18176;49.502;11.754;2022-08-14T17:12:41;96016.94;;;31.95;33.76
21185;BME280;18176;49.502;11.754;2022-08-14T17:16:40;96025.22;;;32.09;34.29
21185;BME280;18176;49.502;11.754;2022-08-14T17:20:37;96011.47;;;31.95;34.13
21185;BME280;18176;49.502;11.754;2022-08-14T17:24:54;96024.03;;;32.24;33.87
21185;BME280;18176;49.502;11.754;2022-08-14T17:29:29;96023.19;;;31.85;34.27
21185;BME280;18176;49.502;11.754;2022-08-14T17:33:35;96013.03;;;30.89;35.79
21185;BME280;18176;49.502;11.754;2022-08-14T17:37:42;95993.81;;;30.27;36.31
21185;BME280;18176;49.502;11.754;2022-08-14T17:41:51;95988.38;;;30.31;36.61
21185;BME280;18176;49.502;11.754;2022-08-14T17:45:59;96000.59;;;30.40;36.71
21185;BME280;18176;49.502;11.754;2022-08-14T17:49:56;96003.38;;;30.04;37.65
21185;BME280;18176;49.502;11.754;2022-08-14T17:53:53;96002.94;;;29.61;38.71
21185;BME280;18176;49.502;11.754;2022-08-14T17:57:59;95980.56;;;29.15;39.32
21185;BME280;18176;49.502;11.754;2022-08-14T18:02:22;96009.19;;;28.99;39.58
21185;BME280;18176;49.502;11.754;2022-08-14T18:06:28;95996.84;;;28.52;40.27
21185;BME280;18176;49.502;11.754;2022-08-14T18:10:45;96014.44;;;28.32;41.04
21185;BME280;18176;49.502;11.754;2022-08-14T18:14:52;96016.41;;;28.09;41.61
21185;BME280;18176;49.502;11.754;2022-08-14T18:18:50;96020.78;;;27.72;43.39
21185;BME280;18176;49.502;11.754;2022-08-14T18:22:48;96021.16;;;27.32;44.62
21185;BME280;18176;49.502;11.754;2022-08-14T18:26:49;96028.88;;;26.92;45.42
21185;BME280;18176;49.502;11.754;2022-08-14T18:35:40;96031.34;;;26.31;46.63
21185;BME280;18176;49.502;11.754;2022-08-14T18:44:13;96037.09;;;25.83;48.11
21185;BME280;18176;49.502;11.754;2022-08-14T18:52:17;96047.19;;;25.54;49.29
21185;BME280;18176;49.502;11.754;2022-08-14T18:56:15;96049.84;;;25.39;50.06
21185;BME280;18176;49.502;11.754;2022-08-14T19:04:36;96062.94;;;25.09;51.26
21185;BME280;18176;49.502;11.754;2022-08-14T19:08:45;96062.28;;;25.00;51.46
21185;BME280;18176;49.502;11.754;2022-08-14T19:16:50;96067.50;;;24.81;52.24
21185;BME280;18176;49.502;11.754;2022-08-14T19:21:07;96076.41;;;24.69;52.44
21185;BME280;18176;49.502;11.754;2022-08-14T19:25:56;96051.50;;;24.52;52.87
21185;BME280;18176;49.502;11.754;2022-08-14T19:34:42;96080.94;;;24.41;53.53
21185;BME280;18176;49.502;11.754;2022-08-14T19:38:57;96061.19;;;24.28;54.11
21185;BME280;18176;49.502;11.754;2022-08-14T19:42:55;96056.78;;;24.12;53.95
21185;BME280;18176;49.502;11.754;2022-08-14T19:46:55;96076.31;;;24.17;54.51
21185;BME280;18176;49.502;11.754;2022-08-14T19:51:01;96072.66;;;24.01;54.71
21185;BME280;18176;49.502;11.754;2022-08-14T19:54:59;96090.66;;;23.97;55.15
21185;BME280;18176;49.502;11.754;2022-08-14T19:58:56;96057.69;;;23.71;55.32
21185;BME280;18176;49.502;11.754;2022-08-14T20:03:03;96091.97;;;23.79;55.93
21185;BME280;18176;49.502;11.754;2022-08-14T20:07:07;96081.78;;;23.64;56.46
21185;BME280;18176;49.502;11.754;2022-08-14T20:11:28;96084.91;;;23.54;57.74
21185;BME280;18176;49.502;11.754;2022-08-14T20:15:45;96060.50;;;23.42;58.03
21185;BME280;18176;49.502;11.754;2022-08-14T20:19:45;96087.25;;;23.43;58.11
21185;BME280;18176;49.502;11.754;2022-08-14T20:23:42;96078.44;;;23.26;58.68
21185;BME280;18176;49.502;11.754;2022-08-14T20:27:48;96064.88;;;23.14;58.64
21185;BME280;18176;49.502;11.754;2022-08-14T20:31:57;96061.47;;;23.04;59.50
21185;BME280;18176;49.502;11.754;2022-08-14T20:35:57;96083.72;;;23.01;60.05
21185;BME280;18176;49.502;11.754;2022-08-14T20:39:56;96090.31;;;22.92;60.59
21185;BME280;18176;49.502;11.754;2022-08-14T20:43:56;96091.41;;;22.70;61.00
21185;BME280;18176;49.502;11.754;2022-08-14T20:48:23;96091.31;;;22.58;61.38
21185;BME280;18176;49.502;11.754;2022-08-14T20:52:40;96076.31;;;22.40;62.38
21185;BME280;18176;49.502;11.754;2022-08-14T20:56:44;96083.75;;;22.43;62.33
21185;BME280;18176;49.502;11.754;2022-08-14T21:00:43;96079.66;;;22.37;62.84
21185;BME280;18176;49.502;11.754;2022-08-14T21:05:01;96075.53;;;22.31;62.72
21185;BME280;18176;49.502;11.754;2022-08-14T21:09:13;96092.41;;;22.28;63.17
21185;BME280;18176;49.502;11.754;2022-08-14T21:13:13;96095.91;;;22.20;63.51
21185;BME280;18176;49.502;11.754;2022-08-14T21:17:33;96097.22;;;22.14;64.33
21185;BME280;18176;49.502;11.754;2022-08-14T21:21:34;96098.53;;;22.08;64.01
21185;BME280;18176;49.502;11.754;2022-08-14T21:25:37;96094.41;;;22.02;64.48
21185;BME280;18176;49.502;11.754;2022-08-14T21:29:38;96101.75;;;21.84;64.98
21185;BME280;18176;49.502;11.754;2022-08-14T21:33:49;96093.16;;;21.74;65.36
21185;BME280;18176;49.502;11.754;2022-08-14T21:37:54;96107.47;;;21.65;66.06
21185;BME280;18176;49.502;11.754;2022-08-14T21:41:52;96101.78;;;21.58;66.24
21185;BME280;18176;49.502;11.754;2022-08-14T21:45:55;96067.69;;;21.37;66.18
21185;BME280;18176;49.502;11.754;2022-08-14T21:49:54;96068.66;;;21.32;66.32
21185;BME280;18176;49.502;11.754;2022-08-14T21:53:53;96079.28;;;21.37;66.86
21185;BME280;18176;49.502;11.754;2022-08-14T21:57:55;96094.34;;;21.38;68.03